createdAt,value
2023-03-11T00:03:03.223Z,9.37
2023-03-11T00:10:07.299Z,11.27
2023-03-11T00:17:10.795Z,10.47
2023-03-11T00:24:15.796Z,8.90
2023-03-11T00:31:20.243Z,9.27
2023-03-11T00:38:29.453Z,9.27
2023-03-11T00:45:32.731Z,11.53
2023-03-11T00:52:37.227Z,8.20
2023-03-11T00:59:40.524Z,11.10
2023-03-11T01:06:45.517Z,8.43
2023-03-11T01:13:49.146Z,10.97
2023-03-11T01:20:52.977Z,7.23
2023-03-11T01:27:56.141Z,10.80
2023-03-11T01:34:59.440Z,8.60
2023-03-11T01:42:02.736Z,4.73
2023-03-11T01:49:06.066Z,4.80
2023-03-11T01:56:12.310Z,4.13
2023-03-11T02:03:26.197Z,2.83
2023-03-11T02:10:29.421Z,2.20
2023-03-11T02:17:32.692Z,1.43
2023-03-11T02:25:04.952Z,1.50
2023-03-11T02:32:09.331Z,1.40
2023-03-11T02:39:13.563Z,1.77
2023-03-11T02:46:20.386Z,1.90
2023-03-11T02:53:24.188Z,2.40
2023-03-11T03:00:27.363Z,1.63
2023-03-11T03:07:30.522Z,1.93
2023-03-11T03:14:34.098Z,2.90
2023-03-11T03:21:37.313Z,3.43
2023-03-11T03:28:41.421Z,2.80
2023-03-11T03:35:45.038Z,3.27
2023-03-11T03:42:48.762Z,2.73
2023-03-11T03:49:51.962Z,3.20
2023-03-11T03:56:55.174Z,2.70
2023-03-11T04:03:58.417Z,3.70
2023-03-11T04:11:01.642Z,2.50
2023-03-11T04:18:05.827Z,3.03
2023-03-11T04:25:09.426Z,3.57
2023-03-11T04:32:13.097Z,3.80
2023-03-11T04:39:16.520Z,3.10
2023-03-11T04:46:19.876Z,3.67
2023-03-11T04:53:23.109Z,2.43
2023-03-11T05:00:26.293Z,3.03
2023-03-11T05:07:29.553Z,3.40
2023-03-11T05:14:32.786Z,2.40
2023-03-11T05:21:35.963Z,3.00
2023-03-11T05:28:39.217Z,2.67
2023-03-11T05:35:43.234Z,3.00
2023-03-11T05:42:46.491Z,3.10
2023-03-11T05:49:50.169Z,2.60
2023-03-11T05:57:03.990Z,3.07
2023-03-11T06:04:07.261Z,3.50
2023-03-11T06:11:17.229Z,4.23
2023-03-11T06:18:20.380Z,5.10
2023-03-11T06:25:23.602Z,5.40
2023-03-11T06:32:29.740Z,5.50
2023-03-11T06:39:33.728Z,4.90
2023-03-11T06:46:37.000Z,4.00
2023-03-11T06:53:40.207Z,5.60
2023-03-11T07:00:44.194Z,5.40
2023-03-11T07:07:47.910Z,5.33
2023-03-11T07:14:51.109Z,5.37
2023-03-11T07:21:54.507Z,4.80
2023-03-11T07:28:58.252Z,5.50
2023-03-11T07:36:02.860Z,4.60
2023-03-11T07:43:08.104Z,5.77
2023-03-11T07:50:11.278Z,6.67
2023-03-11T07:57:17.420Z,5.50
2023-03-11T08:04:20.773Z,6.07
2023-03-11T08:11:23.917Z,4.53
2023-03-11T08:18:30.932Z,6.50
2023-03-11T08:25:34.143Z,5.07
2023-03-11T08:32:38.345Z,3.73
2023-03-11T08:39:41.716Z,4.20
2023-03-11T08:46:46.006Z,5.00
2023-03-11T08:53:49.447Z,4.30
2023-03-11T09:00:52.647Z,4.03
2023-03-11T09:08:05.407Z,4.30
2023-03-11T09:15:10.042Z,4.20
2023-03-11T09:22:14.571Z,3.90
2023-03-11T09:29:17.730Z,5.00
2023-03-11T09:36:21.371Z,4.20
2023-03-11T09:43:42.302Z,4.30
2023-03-11T09:51:23.496Z,5.57
2023-03-11T09:58:36.543Z,5.10
2023-03-11T10:05:56.857Z,5.33
2023-03-11T10:13:29.238Z,4.63
2023-03-11T10:21:06.298Z,7.20
2023-03-11T10:28:24.153Z,5.17
2023-03-11T10:35:51.069Z,5.47
2023-03-11T10:43:06.377Z,4.37
2023-03-11T10:50:21.346Z,4.83
2023-03-11T10:57:41.333Z,5.17
2023-03-11T11:04:56.303Z,7.30
2023-03-11T11:12:31.976Z,4.50
2023-03-11T11:19:51.744Z,7.40
2023-03-11T11:27:01.182Z,6.87
2023-03-11T11:34:29.636Z,7.07
2023-03-11T11:41:37.303Z,7.67
2023-03-11T11:48:48.363Z,8.10
2023-03-11T11:56:24.391Z,6.07
2023-03-11T12:04:09.498Z,5.80
2023-03-11T12:11:36.609Z,5.60
2023-03-11T12:18:47.735Z,7.10
2023-03-11T12:26:27.122Z,6.33
2023-03-11T12:33:42.017Z,7.00
2023-03-11T12:40:48.245Z,6.73
2023-03-11T12:48:04.641Z,4.40
2023-03-11T12:55:46.674Z,8.33
2023-03-11T13:02:49.786Z,6.33
2023-03-11T13:09:58.472Z,6.00
2023-03-11T13:17:19.912Z,5.00
2023-03-11T13:24:42.656Z,6.47
2023-03-11T13:32:30.807Z,5.43
2023-03-11T13:39:55.053Z,4.70
2023-03-11T13:47:08.628Z,5.23
2023-03-11T13:54:39.613Z,4.00
2023-03-11T14:01:50.750Z,4.27
2023-03-11T14:08:54.599Z,3.60
2023-03-11T14:16:30.432Z,3.33
2023-03-11T14:23:34.691Z,5.10
2023-03-11T14:30:42.156Z,3.30
2023-03-11T14:37:55.275Z,2.80
2023-03-11T14:45:01.877Z,3.50
2023-03-11T14:52:10.534Z,3.97
2023-03-11T14:59:41.595Z,2.90
2023-03-11T15:06:51.463Z,2.97
2023-03-11T15:14:07.799Z,3.40
2023-03-11T15:21:38.141Z,2.63
2023-03-11T15:28:42.908Z,2.43
2023-03-11T15:35:46.640Z,3.03
2023-03-11T15:43:00.305Z,1.97
2023-03-11T15:50:03.441Z,1.60
2023-03-11T15:57:15.408Z,2.23
2023-03-11T16:04:27.697Z,1.70
2023-03-11T16:11:32.723Z,1.53
2023-03-11T16:18:36.251Z,2.47
2023-03-11T16:25:41.393Z,1.90
2023-03-11T16:32:45.260Z,2.17
2023-03-11T16:39:52.624Z,2.60
2023-03-11T16:46:56.010Z,4.57
2023-03-11T16:54:00.129Z,2.53
2023-03-11T17:01:03.404Z,2.10
2023-03-11T17:08:08.060Z,3.50
2023-03-11T17:15:12.487Z,2.40
2023-03-11T17:22:17.595Z,2.77
2023-03-11T17:29:20.760Z,2.23
2023-03-11T17:36:24.122Z,2.17
2023-03-11T17:43:27.596Z,2.10
2023-03-11T17:50:30.898Z,1.70
2023-03-11T17:57:44.457Z,2.03
2023-03-11T18:04:48.566Z,2.67
2023-03-11T18:11:57.332Z,2.40
2023-03-11T18:19:00.538Z,2.10
2023-03-11T18:26:03.684Z,1.80
2023-03-11T18:33:08.304Z,1.37
2023-03-11T18:40:13.440Z,1.93
2023-03-11T18:47:18.435Z,2.37
2023-03-11T18:54:21.791Z,1.23
2023-03-11T19:01:28.000Z,2.13
2023-03-11T19:08:34.550Z,1.60
2023-03-11T19:15:44.688Z,1.90
2023-03-11T19:22:58.303Z,1.20
2023-03-11T19:30:04.783Z,1.90
2023-03-11T19:37:10.176Z,2.13
2023-03-11T19:44:13.422Z,1.23
2023-03-11T19:51:17.287Z,1.97
2023-03-11T19:58:20.591Z,1.80
2023-03-11T20:05:23.991Z,1.30
2023-03-11T20:12:27.377Z,1.10
2023-03-11T20:19:30.629Z,1.20
2023-03-11T20:26:33.942Z,2.03
2023-03-11T20:33:37.375Z,1.13
2023-03-11T20:40:41.724Z,1.80
2023-03-11T20:47:45.541Z,1.07
2023-03-11T20:54:49.697Z,1.43
2023-03-11T21:01:53.132Z,0.90
2023-03-11T21:08:56.506Z,1.17
2023-03-11T21:15:59.832Z,1.77
2023-03-11T21:23:03.305Z,1.57
2023-03-11T21:30:06.739Z,1.20
2023-03-11T21:37:11.659Z,1.33
2023-03-11T21:44:14.881Z,1.60
2023-03-11T21:51:18.200Z,0.70
2023-03-11T21:58:21.572Z,1.40
2023-03-11T22:05:25.029Z,1.10
2023-03-11T22:12:28.469Z,0.90
2023-03-11T22:19:31.639Z,1.30
2023-03-11T22:26:34.890Z,0.80
2023-03-11T22:33:38.351Z,0.77
2023-03-11T22:40:41.620Z,1.00
2023-03-11T22:47:46.394Z,1.27
2023-03-11T22:54:49.933Z,1.43
2023-03-11T23:01:53.237Z,1.67
2023-03-11T23:08:56.558Z,0.97
2023-03-11T23:15:59.779Z,1.17
2023-03-11T23:23:03.073Z,1.20
2023-03-11T23:30:07.877Z,1.20
2023-03-11T23:37:13.932Z,1.23
2023-03-11T23:44:17.192Z,1.50
2023-03-11T23:51:20.483Z,1.23
2023-03-11T23:58:24.136Z,1.30
